createdAt,value
2023-05-10T00:01:30.226Z,100171.00
2023-05-10T00:03:33.658Z,100170.16
2023-05-10T00:05:37.219Z,100165.78
2023-05-10T00:07:45.581Z,100177.13
2023-05-10T00:09:48.953Z,100054.50
2023-05-10T00:11:52.317Z,100174.53
2023-05-10T00:13:55.693Z,100159.53
2023-05-10T00:15:59.262Z,100169.25
2023-05-10T00:18:02.754Z,100169.25
2023-05-10T00:20:07.338Z,100171.00
2023-05-10T00:22:11.387Z,100170.13
2023-05-10T00:24:16.054Z,100170.16
2023-05-10T00:26:19.389Z,100164.03
2023-05-10T00:28:29.400Z,100166.63
2023-05-10T00:30:33.674Z,100160.50
2023-05-10T00:32:38.808Z,100162.28
2023-05-10T00:34:42.187Z,100168.41
2023-05-10T00:36:45.499Z,100156.16
2023-05-10T00:38:48.869Z,100138.66
2023-05-10T00:40:53.629Z,100161.41
2023-05-10T00:43:03.935Z,100161.44
2023-05-10T00:45:09.004Z,100153.56
2023-05-10T00:47:12.830Z,100160.56
2023-05-10T00:49:16.447Z,100162.31
2023-05-10T00:51:20.146Z,100157.03
2023-05-10T00:53:23.994Z,100163.09
2023-05-10T00:55:27.614Z,100161.41
2023-05-10T00:57:32.684Z,100162.28
2023-05-10T00:59:36.183Z,100164.03
2023-05-10T01:01:40.070Z,100163.19
2023-05-10T01:03:43.744Z,100162.31
2023-05-10T01:05:47.047Z,100160.56
2023-05-10T01:07:50.510Z,100165.78
2023-05-10T01:09:53.958Z,100168.41
2023-05-10T01:11:58.547Z,100167.56
2023-05-10T01:14:04.431Z,100164.94
2023-05-10T01:16:08.816Z,100162.31
2023-05-10T01:18:12.418Z,100169.31
2023-05-10T01:20:17.244Z,100170.19
2023-05-10T01:22:57.303Z,100132.53
2023-05-10T01:25:18.171Z,100160.56
2023-05-10T01:27:53.391Z,100172.75
2023-05-10T01:30:34.202Z,100163.97
2023-05-10T01:32:45.796Z,100171.88
2023-05-10T01:34:58.368Z,100064.94
2023-05-10T01:37:08.038Z,100170.09
2023-05-10T01:39:17.887Z,100170.13
2023-05-10T01:41:30.236Z,100179.75
2023-05-10T01:43:44.793Z,100181.53
2023-05-10T01:45:56.807Z,100178.91
2023-05-10T01:48:08.271Z,100176.28
2023-05-10T01:50:17.148Z,100177.16
2023-05-10T01:52:24.474Z,100175.41
2023-05-10T01:54:30.763Z,100184.16
2023-05-10T01:56:36.984Z,100149.97
2023-05-10T01:58:43.187Z,100181.50
2023-05-10T02:00:49.197Z,100176.19
2023-05-10T02:02:54.763Z,100182.34
2023-05-10T02:05:01.235Z,100179.72
2023-05-10T02:07:05.562Z,100170.97
2023-05-10T02:09:11.057Z,100180.59
2023-05-10T02:11:16.033Z,100177.09
2023-05-10T02:13:20.677Z,100180.59
2023-05-10T02:15:26.661Z,100177.09
2023-05-10T02:17:32.498Z,100184.97
2023-05-10T02:19:37.940Z,100185.84
2023-05-10T02:21:44.214Z,100190.22
2023-05-10T02:23:50.341Z,100195.50
2023-05-10T02:25:56.180Z,100193.78
2023-05-10T02:28:02.001Z,100195.53
2023-05-10T02:30:09.135Z,100194.63
2023-05-10T02:32:14.068Z,100199.88
2023-05-10T02:34:17.591Z,100195.53
2023-05-10T02:36:23.441Z,100194.66
2023-05-10T02:38:29.319Z,100198.16
2023-05-10T02:40:35.476Z,100201.66
2023-05-10T02:42:40.606Z,100209.53
2023-05-10T02:44:45.283Z,100204.28
2023-05-10T02:46:49.148Z,100206.06
2023-05-10T02:48:52.617Z,100207.84
2023-05-10T02:50:58.108Z,100206.06
2023-05-10T02:53:04.153Z,100209.59
2023-05-10T02:55:11.956Z,100207.84
2023-05-10T02:57:20.226Z,100206.09
2023-05-10T02:59:24.022Z,100209.59
2023-05-10T03:01:27.548Z,100214.84
2023-05-10T03:03:30.944Z,100213.09
2023-05-10T03:05:34.284Z,100214.00
2023-05-10T03:07:40.227Z,100207.88
2023-05-10T03:09:44.232Z,100212.25
2023-05-10T03:11:58.684Z,100207.88
2023-05-10T03:14:13.349Z,100205.22
2023-05-10T03:16:21.977Z,100211.34
2023-05-10T03:18:31.412Z,100215.75
2023-05-10T03:20:38.490Z,100216.66
2023-05-10T03:22:47.479Z,100217.50
2023-05-10T03:24:51.542Z,100209.63
2023-05-10T03:27:00.946Z,100218.44
2023-05-10T03:29:07.002Z,100222.75
2023-05-10T03:31:11.104Z,100218.41
2023-05-10T03:33:15.179Z,100221.88
2023-05-10T03:35:21.819Z,100227.13
2023-05-10T03:37:25.250Z,100202.59
2023-05-10T03:39:28.671Z,100226.25
2023-05-10T03:41:35.546Z,100228.00
2023-05-10T03:43:42.121Z,100128.97
2023-05-10T03:45:45.561Z,100231.47
2023-05-10T03:47:49.032Z,100228.84
2023-05-10T03:49:52.619Z,100234.94
2023-05-10T03:51:56.022Z,100237.56
2023-05-10T03:53:59.387Z,100242.84
2023-05-10T03:56:02.820Z,100240.22
2023-05-10T03:58:06.232Z,100232.38
2023-05-10T04:00:13.625Z,100239.38
2023-05-10T04:02:19.923Z,100236.72
2023-05-10T04:04:24.122Z,100235.00
2023-05-10T04:06:27.604Z,100236.75
2023-05-10T04:08:32.523Z,100242.88
2023-05-10T04:10:36.079Z,100235.91
2023-05-10T04:12:39.402Z,100242.91
2023-05-10T04:14:43.101Z,100236.75
2023-05-10T04:16:47.818Z,100232.38
2023-05-10T04:18:54.374Z,100242.88
2023-05-10T04:20:57.856Z,100238.50
2023-05-10T04:23:05.153Z,100238.50
2023-05-10T04:25:11.772Z,100228.88
2023-05-10T04:27:15.258Z,100234.13
2023-05-10T04:29:18.563Z,100234.13
2023-05-10T04:31:22.550Z,100228.81
2023-05-10T04:33:27.225Z,100235.81
2023-05-10T04:35:30.640Z,100240.19
2023-05-10T04:37:34.011Z,100234.00
2023-05-10T04:39:37.341Z,100243.63
2023-05-10T04:41:40.738Z,100242.78
2023-05-10T04:43:44.067Z,100251.53
2023-05-10T04:45:47.348Z,100245.41
2023-05-10T04:47:50.776Z,100245.41
2023-05-10T04:49:55.485Z,100249.75
2023-05-10T04:51:58.818Z,100154.09
2023-05-10T04:54:06.405Z,100245.28
2023-05-10T04:56:10.217Z,100251.44
2023-05-10T04:58:13.539Z,100255.78
2023-05-10T05:00:17.958Z,100262.81
2023-05-10T05:02:21.490Z,100264.53
2023-05-10T05:04:25.035Z,100267.09
2023-05-10T05:06:29.878Z,100263.47
2023-05-10T05:08:33.245Z,100255.75
2023-05-10T05:10:36.592Z,100260.09
2023-05-10T05:12:39.989Z,100263.63
2023-05-10T05:14:43.348Z,100269.72
2023-05-10T05:16:46.646Z,100274.97
2023-05-10T05:18:49.970Z,100282.81
2023-05-10T05:20:53.290Z,100290.50
2023-05-10T05:22:57.991Z,100282.63
2023-05-10T05:25:03.370Z,100273.19
2023-05-10T05:27:06.802Z,100289.00
2023-05-10T05:29:10.247Z,100282.88
2023-05-10T05:31:13.608Z,100289.91
2023-05-10T05:33:17.589Z,100291.63
2023-05-10T05:35:20.926Z,100289.03
2023-05-10T05:37:25.443Z,100295.19
2023-05-10T05:39:30.257Z,100291.63
2023-05-10T05:41:33.550Z,100296.91
2023-05-10T05:43:38.349Z,100299.50
2023-05-10T05:45:42.038Z,100306.47
2023-05-10T05:47:45.495Z,100303.84
2023-05-10T05:49:48.775Z,100301.28
2023-05-10T05:51:52.104Z,100313.53
2023-05-10T05:53:55.551Z,100313.50
2023-05-10T05:56:01.084Z,100301.28
2023-05-10T05:58:04.620Z,100308.31
2023-05-10T06:00:09.421Z,100315.22
2023-05-10T06:02:18.486Z,100312.66
2023-05-10T06:04:22.072Z,100314.41
2023-05-10T06:06:25.561Z,100308.31
2023-05-10T06:08:28.951Z,100324.09
2023-05-10T06:10:32.456Z,100319.75
2023-05-10T06:12:37.214Z,100327.59
2023-05-10T06:14:40.582Z,100296.91
2023-05-10T06:16:44.127Z,100336.31
2023-05-10T06:18:47.594Z,100332.81
2023-05-10T06:20:51.561Z,100336.38
2023-05-10T06:22:54.842Z,100340.81
2023-05-10T06:24:58.223Z,100344.28
2023-05-10T06:27:05.091Z,100344.31
2023-05-10T06:29:09.802Z,100348.66
2023-05-10T06:31:13.360Z,100241.59
2023-05-10T06:33:17.542Z,100347.78
2023-05-10T06:35:21.070Z,100354.75
2023-05-10T06:37:24.405Z,100356.44
2023-05-10T06:39:27.717Z,100345.00
2023-05-10T06:41:31.216Z,100358.22
2023-05-10T06:43:34.673Z,100349.50
2023-05-10T06:45:39.433Z,100360.06
2023-05-10T06:47:43.327Z,100358.31
2023-05-10T06:49:46.798Z,100360.03
2023-05-10T06:51:50.354Z,100355.47
2023-05-10T06:53:53.878Z,100365.19
2023-05-10T06:55:57.321Z,100367.66
2023-05-10T06:58:00.823Z,100371.19
2023-05-10T07:00:06.111Z,100375.56
2023-05-10T07:02:11.081Z,100374.56
2023-05-10T07:04:14.949Z,100371.97
2023-05-10T07:06:29.389Z,100372.03
2023-05-10T07:08:36.742Z,100361.47
2023-05-10T07:10:40.067Z,100371.25
2023-05-10T07:12:43.465Z,100371.19
2023-05-10T07:14:47.552Z,100372.97
2023-05-10T07:16:50.998Z,100378.25
2023-05-10T07:18:55.660Z,100376.38
2023-05-10T07:20:59.402Z,100372.81
2023-05-10T07:23:03.130Z,100376.44
2023-05-10T07:25:07.505Z,100378.19
2023-05-10T07:27:11.237Z,100380.00
2023-05-10T07:29:14.807Z,100371.25
2023-05-10T07:31:18.092Z,100379.19
2023-05-10T07:33:21.640Z,100386.22
2023-05-10T07:35:26.340Z,100381.94
2023-05-10T07:37:29.659Z,100386.25
2023-05-10T07:39:32.990Z,100391.47
2023-05-10T07:41:36.361Z,100384.50
2023-05-10T07:43:39.711Z,100390.59
2023-05-10T07:45:43.271Z,100347.63
2023-05-10T07:47:46.759Z,100385.41
2023-05-10T07:49:50.134Z,100384.56
2023-05-10T07:51:54.796Z,100392.47
2023-05-10T07:53:58.897Z,100385.47
2023-05-10T07:56:23.650Z,100390.72
2023-05-10T07:58:27.229Z,100395.94
2023-05-10T08:00:30.682Z,100390.75
2023-05-10T08:02:34.884Z,100395.16
2023-05-10T08:04:38.456Z,100380.25
2023-05-10T08:06:42.470Z,100386.41
2023-05-10T08:08:50.207Z,100385.50
2023-05-10T08:10:53.537Z,100403.06
2023-05-10T08:12:56.853Z,100399.59
2023-05-10T08:15:00.149Z,100399.56
2023-05-10T08:17:03.408Z,100403.09
2023-05-10T08:19:06.882Z,100404.88
2023-05-10T08:21:12.189Z,100403.16
2023-05-10T08:23:15.501Z,100402.28
2023-05-10T08:25:20.250Z,100404.09
2023-05-10T08:27:23.609Z,100386.53
2023-05-10T08:29:28.550Z,100412.91
2023-05-10T08:31:34.020Z,100413.78
2023-05-10T08:33:37.421Z,100404.91
2023-05-10T08:35:40.855Z,100418.94
2023-05-10T08:37:44.199Z,100409.25
2023-05-10T08:39:48.897Z,100415.41
2023-05-10T08:41:56.212Z,100418.06
2023-05-10T08:44:00.131Z,100418.97
2023-05-10T08:46:03.748Z,100423.25
2023-05-10T08:48:09.266Z,100423.28
2023-05-10T08:50:13.536Z,100418.03
2023-05-10T08:52:18.386Z,100425.88
2023-05-10T08:54:21.795Z,100428.56
2023-05-10T08:56:26.038Z,100428.53
2023-05-10T08:58:31.785Z,100443.41
2023-05-10T09:00:35.945Z,100435.50
2023-05-10T09:02:39.547Z,100436.38
2023-05-10T09:04:43.027Z,100442.59
2023-05-10T09:06:46.340Z,100444.41
2023-05-10T09:08:49.971Z,100436.53
2023-05-10T09:10:53.705Z,100437.44
2023-05-10T09:12:59.621Z,100440.09
2023-05-10T09:15:06.892Z,100439.28
2023-05-10T09:17:11.677Z,100440.16
2023-05-10T09:19:15.771Z,100445.41
2023-05-10T09:21:19.258Z,100448.09
2023-05-10T09:23:22.982Z,100445.44
2023-05-10T09:25:26.354Z,100455.06
2023-05-10T09:27:29.722Z,100466.47
2023-05-10T09:29:41.503Z,100428.75
2023-05-10T09:31:52.171Z,100454.13
2023-05-10T09:33:56.063Z,100460.28
2023-05-10T09:36:09.237Z,100453.28
2023-05-10T09:38:12.562Z,100478.63
2023-05-10T09:40:17.203Z,100469.91
2023-05-10T09:42:20.769Z,100466.44
2023-05-10T09:44:24.044Z,100473.41
2023-05-10T09:46:27.514Z,100463.78
2023-05-10T09:48:32.378Z,100469.88
2023-05-10T09:50:36.009Z,100473.31
2023-05-10T09:52:49.282Z,100472.50
2023-05-10T09:54:55.744Z,100482.84
2023-05-10T09:56:59.170Z,100471.50
2023-05-10T09:59:05.641Z,100486.44
2023-05-10T10:01:13.028Z,100487.31
2023-05-10T10:03:17.606Z,100480.34
2023-05-10T10:05:22.503Z,100483.81
2023-05-10T10:07:27.250Z,100481.13
2023-05-10T10:09:31.103Z,100482.13
2023-05-10T10:11:35.919Z,100488.28
2023-05-10T10:13:39.400Z,100489.22
2023-05-10T10:15:45.046Z,100487.47
2023-05-10T10:17:50.144Z,100483.00
2023-05-10T10:19:53.622Z,100484.72
2023-05-10T10:21:59.960Z,100484.72
2023-05-10T10:24:06.292Z,100482.16
2023-05-10T10:26:10.016Z,100491.81
2023-05-10T10:28:28.250Z,100491.81
2023-05-10T10:30:38.008Z,100487.44
2023-05-10T10:33:05.616Z,100382.16
2023-05-10T10:35:13.891Z,100487.53
2023-05-10T10:37:18.898Z,100491.06
2023-05-10T10:39:22.826Z,100489.34
2023-05-10T10:41:31.128Z,100499.81
2023-05-10T10:43:34.572Z,100495.31
2023-05-10T10:45:42.344Z,100492.66
2023-05-10T10:47:47.204Z,100502.31
2023-05-10T10:49:52.602Z,100494.44
2023-05-10T10:52:15.013Z,100491.88
2023-05-10T10:54:29.782Z,100501.53
2023-05-10T10:56:34.359Z,100501.56
2023-05-10T10:58:40.092Z,100502.47
2023-05-10T11:00:45.572Z,100496.34
2023-05-10T11:02:50.772Z,100499.84
2023-05-10T11:04:54.179Z,100497.22
2023-05-10T11:07:18.641Z,100504.25
2023-05-10T11:09:26.908Z,100499.84
2023-05-10T11:11:31.124Z,100498.13
2023-05-10T11:13:36.928Z,100507.78
2023-05-10T11:15:41.994Z,100509.50
2023-05-10T11:17:48.357Z,100510.38
2023-05-10T11:20:11.016Z,100510.38
2023-05-10T11:22:15.699Z,100507.78
2023-05-10T11:24:20.555Z,100510.41
2023-05-10T11:26:26.591Z,100516.59
2023-05-10T11:28:30.322Z,100515.66
2023-05-10T11:30:33.963Z,100523.53
2023-05-10T11:32:39.161Z,100534.06
2023-05-10T11:34:42.760Z,100538.44
2023-05-10T11:36:52.796Z,100533.19
2023-05-10T11:38:57.341Z,100523.56
2023-05-10T11:41:00.765Z,100519.13
2023-05-10T11:43:06.632Z,100523.50
2023-05-10T11:45:10.785Z,100517.34
2023-05-10T11:47:16.436Z,100526.13
2023-05-10T11:49:20.036Z,100522.59
2023-05-10T11:51:25.018Z,100532.28
2023-05-10T11:53:29.183Z,100527.91
2023-05-10T11:55:35.896Z,100534.00
2023-05-10T11:57:42.190Z,100528.72
2023-05-10T11:59:47.667Z,100533.13
2023-05-10T12:01:51.239Z,100433.06
2023-05-10T12:03:56.480Z,100506.88
2023-05-10T12:06:00.865Z,100535.84
2023-05-10T12:08:14.495Z,100526.22
2023-05-10T12:10:19.149Z,100533.28
2023-05-10T12:12:22.989Z,100537.66
2023-05-10T12:14:26.484Z,100541.16
2023-05-10T12:16:32.077Z,100542.94
2023-05-10T12:18:35.900Z,100535.03
2023-05-10T12:20:39.848Z,100540.22
2023-05-10T12:22:43.319Z,100541.09
2023-05-10T12:24:47.737Z,100541.09
2023-05-10T12:26:52.460Z,100544.47
2023-05-10T12:28:56.133Z,100540.75
2023-05-10T12:31:01.155Z,100548.44
2023-05-10T12:33:12.218Z,100544.84
2023-05-10T12:35:16.185Z,100540.56
2023-05-10T12:37:19.581Z,100547.66
2023-05-10T12:39:23.032Z,100545.13
2023-05-10T12:41:26.433Z,100547.81
2023-05-10T12:43:30.236Z,100552.38
2023-05-10T12:45:33.836Z,100554.91
2023-05-10T12:47:38.055Z,100553.16
2023-05-10T12:49:43.151Z,100554.16
2023-05-10T12:51:46.510Z,100560.25
2023-05-10T12:53:49.929Z,100556.78
2023-05-10T12:55:53.386Z,100560.25
2023-05-10T12:57:56.740Z,100562.88
2023-05-10T13:00:00.212Z,100561.09
2023-05-10T13:02:03.848Z,100556.59
2023-05-10T13:04:07.277Z,100551.41
2023-05-10T13:06:12.133Z,100562.88
2023-05-10T13:08:15.657Z,100562.78
2023-05-10T13:10:19.564Z,100563.66
2023-05-10T13:12:23.174Z,100560.25
2023-05-10T13:14:27.222Z,100555.03
2023-05-10T13:16:30.880Z,100566.41
2023-05-10T13:18:34.329Z,100559.34
2023-05-10T13:20:38.036Z,100563.66
2023-05-10T13:22:43.335Z,100561.84
2023-05-10T13:24:46.786Z,100558.28
2023-05-10T13:26:50.500Z,100552.16
2023-05-10T13:28:53.871Z,100561.72
2023-05-10T13:30:57.271Z,100554.50
2023-05-10T13:33:00.921Z,100566.66
2023-05-10T13:35:05.344Z,100462.13
2023-05-10T13:37:08.735Z,100565.53
2023-05-10T13:39:13.560Z,100566.00
2023-05-10T13:41:16.964Z,100568.44
2023-05-10T13:43:20.644Z,100560.16
2023-05-10T13:45:24.249Z,100571.84
2023-05-10T13:47:28.056Z,100569.66
2023-05-10T13:49:31.481Z,100572.91
2023-05-10T13:51:36.573Z,100572.47
2023-05-10T13:53:40.339Z,100579.00
2023-05-10T13:55:45.099Z,100580.06
2023-05-10T13:57:48.682Z,100565.03
2023-05-10T13:59:52.443Z,100566.13
2023-05-10T14:01:55.886Z,100567.00
2023-05-10T14:03:59.654Z,100562.63
2023-05-10T14:06:03.461Z,100564.25
2023-05-10T14:08:06.855Z,100561.44
2023-05-10T14:10:10.796Z,100559.31
2023-05-10T14:12:16.403Z,100567.75
2023-05-10T14:14:19.852Z,100552.69
2023-05-10T14:16:23.417Z,100550.28
2023-05-10T14:18:27.140Z,100553.22
2023-05-10T14:20:30.984Z,100544.97
2023-05-10T14:22:34.456Z,100550.88
2023-05-10T14:24:38.022Z,100468.94
2023-05-10T14:26:41.500Z,100555.22
2023-05-10T14:28:46.347Z,100558.13
2023-05-10T14:30:50.003Z,100560.06
2023-05-10T14:32:54.979Z,100553.16
2023-05-10T14:34:58.510Z,100559.44
2023-05-10T14:37:02.131Z,100556.06
2023-05-10T14:39:05.964Z,100553.41
2023-05-10T14:41:11.251Z,100552.63
2023-05-10T14:43:15.345Z,100557.16
2023-05-10T14:45:20.541Z,100554.59
2023-05-10T14:47:24.157Z,100548.47
2023-05-10T14:49:28.408Z,100553.75
2023-05-10T14:51:32.701Z,100548.47
2023-05-10T14:53:36.627Z,100547.59
2023-05-10T14:55:40.324Z,100551.03
2023-05-10T14:57:45.001Z,100549.25
2023-05-10T14:59:49.014Z,100553.66
2023-05-10T15:01:54.328Z,100550.97
2023-05-10T15:03:57.887Z,100549.22
2023-05-10T15:06:01.762Z,100538.69
2023-05-10T15:08:05.440Z,100544.03
2023-05-10T15:10:10.581Z,100540.56
2023-05-10T15:12:14.238Z,100541.50
2023-05-10T15:14:17.606Z,100548.59
2023-05-10T15:16:21.213Z,100541.59
2023-05-10T15:18:26.745Z,100539.81
2023-05-10T15:20:30.256Z,100540.75
2023-05-10T15:22:34.433Z,100550.50
2023-05-10T15:24:38.033Z,100542.63
2023-05-10T15:26:41.399Z,100541.72
2023-05-10T15:28:44.944Z,100544.34
2023-05-10T15:30:48.422Z,100539.94
2023-05-10T15:32:51.847Z,100546.97
2023-05-10T15:34:56.995Z,100542.56
2023-05-10T15:37:00.453Z,100533.81
2023-05-10T15:39:04.847Z,100547.84
2023-05-10T15:41:08.206Z,100550.41
2023-05-10T15:43:11.870Z,100548.59
2023-05-10T15:45:16.203Z,100555.63
2023-05-10T15:47:20.074Z,100566.19
2023-05-10T15:49:23.591Z,100582.09
2023-05-10T15:51:28.550Z,100567.09
2023-05-10T15:53:32.002Z,100583.00
2023-05-10T15:55:35.415Z,100567.97
2023-05-10T15:57:38.864Z,100569.72
2023-05-10T15:59:42.900Z,100564.41
2023-05-10T16:01:46.410Z,100555.44
2023-05-10T16:03:49.920Z,100564.09
2023-05-10T16:05:53.739Z,100453.63
2023-05-10T16:07:58.620Z,100568.47
2023-05-10T16:10:04.046Z,100556.09
2023-05-10T16:12:07.718Z,100559.53
2023-05-10T16:14:11.172Z,100564.44
2023-05-10T16:16:14.818Z,100575.75
2023-05-10T16:18:18.705Z,100578.03
2023-05-10T16:20:22.334Z,100578.06
2023-05-10T16:22:28.838Z,100591.50
2023-05-10T16:24:33.833Z,100583.94
2023-05-10T16:26:41.002Z,100599.47
2023-05-10T16:28:44.557Z,100586.84
2023-05-10T16:30:48.000Z,100578.94
2023-05-10T16:32:51.505Z,100589.47
2023-05-10T16:34:54.964Z,100578.91
2023-05-10T16:36:58.345Z,100583.91
2023-05-10T16:39:01.806Z,100585.81
2023-05-10T16:41:07.070Z,100582.56
2023-05-10T16:43:10.532Z,100594.22
2023-05-10T16:45:14.157Z,100591.56
2023-05-10T16:47:17.817Z,100582.84
2023-05-10T16:49:21.973Z,100587.84
2023-05-10T16:51:26.645Z,100597.53
2023-05-10T16:53:31.024Z,100599.47
2023-05-10T16:55:34.430Z,100596.06
2023-05-10T16:57:39.261Z,100595.47
2023-05-10T16:59:42.731Z,100596.53
2023-05-10T17:01:47.041Z,100526.50
2023-05-10T17:03:50.635Z,100613.50
2023-05-10T17:05:54.157Z,100603.91
2023-05-10T17:07:58.127Z,100612.72
2023-05-10T17:10:01.620Z,100538.19
2023-05-10T17:12:05.241Z,100615.47
2023-05-10T17:14:10.268Z,100618.09
2023-05-10T17:16:13.848Z,100607.59
2023-05-10T17:18:18.130Z,100610.22
2023-05-10T17:20:21.984Z,100613.69
2023-05-10T17:22:25.656Z,100612.81
2023-05-10T17:24:29.773Z,100617.28
2023-05-10T17:26:34.524Z,100613.91
2023-05-10T17:28:37.968Z,100617.50
2023-05-10T17:30:42.871Z,100617.47
2023-05-10T17:32:46.277Z,100622.78
2023-05-10T17:34:49.735Z,100622.78
2023-05-10T17:36:53.686Z,100630.69
2023-05-10T17:38:57.139Z,100630.59
2023-05-10T17:41:00.703Z,100631.47
2023-05-10T17:43:04.480Z,100605.13
2023-05-10T17:45:09.027Z,100634.97
2023-05-10T17:47:14.761Z,100642.00
2023-05-10T17:49:18.235Z,100633.25
2023-05-10T17:51:21.704Z,100643.81
2023-05-10T17:53:25.871Z,100636.72
2023-05-10T17:55:30.745Z,100650.75
2023-05-10T17:57:36.670Z,100645.44
2023-05-10T17:59:40.091Z,100554.19
2023-05-10T18:01:43.504Z,100651.63
2023-05-10T18:03:50.059Z,100656.91
2023-05-10T18:05:55.148Z,100656.03
2023-05-10T18:07:58.641Z,100660.47
2023-05-10T18:10:02.074Z,100661.34
2023-05-10T18:12:06.631Z,100661.44
2023-05-10T18:14:10.197Z,100657.94
2023-05-10T18:16:13.708Z,100667.59
2023-05-10T18:18:17.553Z,100658.81
2023-05-10T18:20:22.483Z,100656.22
2023-05-10T18:22:27.096Z,100664.97
2023-05-10T18:26:36.962Z,100664.13
2023-05-10T18:28:40.471Z,100665.00
2023-05-10T18:30:44.199Z,100661.50
2023-05-10T18:32:47.803Z,100667.66
2023-05-10T18:34:51.639Z,100665.88
2023-05-10T18:36:57.299Z,100657.06
2023-05-10T18:39:00.900Z,100672.00
2023-05-10T18:41:04.708Z,100661.47
2023-05-10T18:43:08.903Z,100669.34
2023-05-10T18:45:13.132Z,100665.84
2023-05-10T18:47:16.872Z,100671.13
2023-05-10T18:49:20.424Z,100670.25
2023-05-10T18:51:25.037Z,100672.06
2023-05-10T18:53:30.043Z,100682.63
2023-05-10T18:55:33.650Z,100672.88
2023-05-10T18:57:41.077Z,100642.13
2023-05-10T18:59:44.711Z,100677.25
2023-05-10T19:01:50.880Z,100672.00
2023-05-10T19:03:54.833Z,100677.28
2023-05-10T19:05:58.240Z,100681.66
2023-05-10T19:08:01.668Z,100672.00
2023-05-10T19:10:07.774Z,100677.25
2023-05-10T19:12:11.214Z,100677.28
2023-05-10T19:14:14.596Z,100681.69
2023-05-10T19:16:18.267Z,100657.94
2023-05-10T19:18:21.837Z,100681.66
2023-05-10T19:20:25.645Z,100679.88
2023-05-10T19:24:36.373Z,100692.13
2023-05-10T19:26:41.200Z,100697.31
2023-05-10T19:28:45.230Z,100691.97
2023-05-10T19:30:49.623Z,100690.19
2023-05-10T19:32:53.094Z,100697.19
2023-05-10T19:34:56.668Z,100699.88
2023-05-10T19:37:00.124Z,100699.88
2023-05-10T19:39:03.613Z,100691.97
2023-05-10T19:41:07.042Z,100705.09
2023-05-10T19:43:11.837Z,100678.69
2023-05-10T19:45:16.034Z,100710.41
2023-05-10T19:47:20.236Z,100711.31
2023-05-10T19:49:23.721Z,100703.44
2023-05-10T19:51:27.178Z,100695.63
2023-05-10T19:53:31.115Z,100698.25
2023-05-10T19:55:36.293Z,100669.25
2023-05-10T19:57:39.712Z,100709.63
2023-05-10T19:59:44.524Z,100615.44
2023-05-10T20:01:47.925Z,100712.19
2023-05-10T20:03:51.608Z,100714.75
2023-05-10T20:05:55.370Z,100717.31
2023-05-10T20:07:58.784Z,100710.25
2023-05-10T20:10:02.827Z,100718.94
2023-05-10T20:12:06.253Z,100698.63
2023-05-10T20:14:10.133Z,100706.56
2023-05-10T20:16:14.969Z,100702.25
2023-05-10T20:18:18.479Z,100707.63
2023-05-10T20:20:22.288Z,100710.34
2023-05-10T20:22:26.117Z,100709.50
2023-05-10T20:24:29.501Z,100602.28
2023-05-10T20:26:32.866Z,100707.88
2023-05-10T20:28:36.564Z,100715.78
2023-05-10T20:30:40.857Z,100715.78
2023-05-10T20:32:45.743Z,100706.16
2023-05-10T20:34:49.664Z,100713.13
2023-05-10T20:36:53.046Z,100683.22
2023-05-10T20:38:56.553Z,100709.56
2023-05-10T20:40:59.922Z,100707.81
2023-05-10T20:43:03.510Z,100687.63
2023-05-10T20:45:08.126Z,100702.59
2023-05-10T20:47:12.684Z,100692.00
2023-05-10T20:49:18.050Z,100700.75
2023-05-10T20:51:21.456Z,100705.09
2023-05-10T20:53:24.827Z,100708.59
2023-05-10T20:55:28.701Z,100710.28
2023-05-10T20:57:32.106Z,100708.56
2023-05-10T20:59:35.714Z,100630.25
2023-05-10T21:01:39.132Z,100706.84
2023-05-10T21:03:42.612Z,100709.50
2023-05-10T21:05:47.421Z,100600.53
2023-05-10T21:07:54.059Z,100685.78
2023-05-10T21:09:57.461Z,100707.72
2023-05-10T21:12:03.165Z,100681.31
2023-05-10T21:14:07.773Z,100706.81
2023-05-10T21:16:11.193Z,100706.75
2023-05-10T21:18:14.660Z,100708.50
2023-05-10T21:20:18.430Z,100709.38
2023-05-10T21:22:23.444Z,100689.03
2023-05-10T21:24:29.875Z,100700.41
2023-05-10T21:26:33.313Z,100710.03
2023-05-10T21:28:39.055Z,100698.56
2023-05-10T21:30:43.578Z,100704.72
2023-05-10T21:32:47.254Z,100599.09
2023-05-10T21:34:50.724Z,100704.72
2023-05-10T21:36:55.509Z,100709.88
2023-05-10T21:39:00.447Z,100705.28
2023-05-10T21:41:08.015Z,100687.69
2023-05-10T21:43:12.048Z,100709.78
2023-05-10T21:45:15.545Z,100713.31
2023-05-10T21:47:19.121Z,100712.56
2023-05-10T21:49:22.924Z,100693.28
2023-05-10T21:51:26.362Z,100690.66
2023-05-10T21:53:30.056Z,100718.00
2023-05-10T21:55:35.048Z,100711.00
2023-05-10T21:57:38.470Z,100713.59
2023-05-10T21:59:41.930Z,100715.25
2023-05-10T22:01:45.491Z,100709.06
2023-05-10T22:03:49.102Z,100708.06
2023-05-10T22:05:52.556Z,100716.72
2023-05-10T22:07:55.932Z,100717.59
2023-05-10T22:09:59.921Z,100709.78
2023-05-10T22:12:04.897Z,100720.31
2023-05-10T22:14:08.252Z,100715.16
2023-05-10T22:16:11.867Z,100709.97
2023-05-10T22:18:15.616Z,100718.72
2023-05-10T22:20:19.514Z,100719.50
2023-05-10T22:22:23.420Z,100720.28
2023-05-10T22:24:27.032Z,100715.09
2023-05-10T22:26:30.388Z,100715.28
2023-05-10T22:28:35.174Z,100708.50
2023-05-10T22:30:38.901Z,100716.53
2023-05-10T22:32:42.416Z,100613.72
2023-05-10T22:34:45.866Z,100716.69
2023-05-10T22:36:50.526Z,100726.41
2023-05-10T22:38:53.998Z,100723.78
2023-05-10T22:40:57.390Z,100735.25
2023-05-10T22:43:00.771Z,100726.44
2023-05-10T22:45:06.325Z,100724.59
2023-05-10T22:47:09.785Z,100728.97
2023-05-10T22:49:13.441Z,100728.88
2023-05-10T22:51:16.935Z,100632.13
2023-05-10T22:53:20.309Z,100722.81
2023-05-10T22:55:23.968Z,100727.16
2023-05-10T22:57:27.801Z,100715.66
2023-05-10T22:59:31.428Z,100726.22
2023-05-10T23:01:36.470Z,100728.81
2023-05-10T23:03:40.101Z,100730.53
2023-05-10T23:05:43.539Z,100727.91
2023-05-10T23:07:48.453Z,100731.38
2023-05-10T23:09:52.354Z,100734.84
2023-05-10T23:11:55.852Z,100737.47
2023-05-10T23:13:59.332Z,100732.13
2023-05-10T23:16:06.322Z,100732.00
2023-05-10T23:18:11.238Z,100718.59
2023-05-10T23:20:14.719Z,100739.53
2023-05-10T23:22:18.214Z,100726.22
2023-05-10T23:24:21.631Z,100739.41
2023-05-10T23:26:25.087Z,100736.88
2023-05-10T23:28:28.751Z,100737.00
2023-05-10T23:30:32.806Z,100640.22
2023-05-10T23:32:36.407Z,100733.63
2023-05-10T23:34:41.269Z,100730.13
2023-05-10T23:36:44.758Z,100656.13
2023-05-10T23:38:48.154Z,100729.19
2023-05-10T23:40:52.251Z,100730.06
2023-05-10T23:42:55.652Z,100730.09
2023-05-10T23:44:59.231Z,100723.09
2023-05-10T23:47:02.600Z,100724.03
2023-05-10T23:49:06.144Z,100725.78